Startpagina
METAR-TAF:

METAR-TAF

Vliegvelden :

Ouagadougou, Burkina Faso

Luchthaven Ouagadougou Internationaal

breedte: 12-21N, lengte: 001-31W, hoogte: 316 m

Actueel weer

Dit bericht is 18 minuten geleden gemaakt, om 12:00 UTC
Wind 6 kt uit het zuidzuidoosten, variërend tussen het oosten en het zuiden
Temperatuur 36°C
Vochtigheid 12%
Druk 1011 hPa
Zicht 10 km of meer
geen wolken onder 1500 m en geen cumulonimbus

METAR: DFFD 191200Z 15006KT 090V190 CAVOK 36/02 Q1011 NOSIG

Tijdstip: 12:18 (12:18 UTC)

Verwachting

Dit bericht is 1 uur en het 18 minuten geleden gemaakt, om 11:00 UTC
Verwachting geldig van 19 om 12 UTC tot 20 om 18 UTC
Wind 8 kt uit het oostnoordoosten
Zicht: 8000 m
Tijdelijke
van 19 om 17 UTC tot 19 om 20 UTC
Zicht: 4000 m
Heiigheid
Tijdelijke
van 20 om 06 UTC tot 20 om 10 UTC
Zicht: 2500 m
Heiigheid

TAF: DFFD 191100Z 1912/2018 06008KT 8000 NSC TEMPO 1917/1920 4000 HZ TEMPO 2006/2010 2500 HZ

Waarnemingen en weersverwachtingen van meer dan 4000 vliegvelden (METAR en TAF).

De beschikbare stations zijn de gele en rode punten op de kaart.

Ga met uw muis naar het station om de naam te zien.

Klik dan om waarnemingen en weersverwachtingen te zien.

kaart wijzigen: klik op de groene knoppen met een zwart kruis om in te zoomen, op de groene knop met een streepje om uit te zoomen of op de groene pijlen voor aangrenzende kaarten.


METAR-TAF: